Time;durP1;ratioP1;P1;durP2;ratioP2;P2;SDS_P1;SDS_P2;PMS_P1;PMS_P2;Temp;Humidity;BMP_temperature;BMP_pressure;BME280_temperature;BME280_humidity;BME280_pressure;Samples;Min_cycle;Max_cycle;Signal;HPM_P1;HPM_P2
2023/04/14 00:00:17;;;;;;;2.90;2.70;;;;;;;;;;6123029;23;20010;-68
2023/04/14 00:02:43;;;;;;;2.30;2.10;;;;;;;;;;6097140;23;20046;-69
2023/04/14 00:05:09;;;;;;;2.90;2.60;;;;;;;;;;6122962;23;20022;-68
2023/04/14 00:07:35;;;;;;;2.88;2.67;;;;;;;;;;6123207;23;20056;-69
2023/04/14 00:10:02;;;;;;;3.30;2.97;;;;;;;;;;6124530;23;20520;-69
2023/04/14 00:12:29;;;;;;;3.75;3.28;;;;;;;;;;6122427;23;20026;-68
2023/04/14 00:14:55;;;;;;;3.53;2.67;;;;;;;;;;6096776;23;20009;-69
2023/04/14 00:17:21;;;;;;;3.50;3.20;;;;;;;;;;6096923;23;20041;-69
2023/04/14 00:19:47;;;;;;;3.80;3.20;;;;;;;;;;6096829;23;20041;-69
2023/04/14 00:22:13;;;;;;;3.38;3.00;;;;;;;;;;6122449;23;20014;-69
2023/04/14 00:24:45;;;;;;;8.13;3.30;;;;;;;;;;6122358;23;20010;-69
2023/04/14 00:27:11;;;;;;;3.15;2.80;;;;;;;;;;6122833;23;20014;-68
2023/04/14 00:29:40;;;;;;;3.97;3.05;;;;;;;;;;6122475;23;20370;-69
2023/04/14 00:32:06;;;;;;;7.13;3.17;;;;;;;;;;6096745;23;20028;-70
2023/04/14 00:34:32;;;;;;;3.22;3.03;;;;;;;;;;6096522;23;20020;-68
2023/04/14 00:36:58;;;;;;;3.05;2.85;;;;;;;;;;6122696;23;20009;-69
2023/04/14 00:39:25;;;;;;;3.35;3.15;;;;;;;;;;6096551;23;20014;-69
2023/04/14 00:41:50;;;;;;;3.30;3.10;;;;;;;;;;6122656;23;20121;-68
2023/04/14 00:44:17;;;;;;;4.88;3.10;;;;;;;;;;6122133;23;20017;-68
2023/04/14 00:46:43;;;;;;;3.30;3.10;;;;;;;;;;6122357;23;20454;-67
2023/04/14 00:49:10;;;;;;;3.95;3.65;;;;;;;;;;6048919;23;20065;-68
2023/04/14 00:51:35;;;;;;;3.17;2.97;;;;;;;;;;6096226;23;20022;-68
2023/04/14 00:54:02;;;;;;;2.50;2.30;;;;;;;;;;6096633;23;20036;-71
2023/04/14 00:56:30;;;;;;;4.80;3.88;;;;;;;;;;6096620;23;20010;-68
2023/04/14 00:58:57;;;;;;;3.40;3.17;;;;;;;;;;6096536;23;20411;-67
2023/04/14 01:01:23;;;;;;;6.53;3.42;;;;;;;;;;6096619;23;20064;-67
2023/04/14 01:03:49;;;;;;;3.60;3.30;;;;;;;;;;6122443;23;20165;-68
2023/04/14 01:06:16;;;;;;;5.43;3.50;;;;;;;;;;6096529;23;20352;-68
2023/04/14 01:08:42;;;;;;;3.88;3.58;;;;;;;;;;6072043;23;20010;-68
2023/04/14 01:11:14;;;;;;;2.90;2.70;;;;;;;;;;6122723;23;20411;-69
2023/04/14 01:13:45;;;;;;;3.40;3.20;;;;;;;;;;6122415;23;20025;-68
2023/04/14 01:16:16;;;;;;;4.10;3.53;;;;;;;;;;6072895;23;20011;-69
2023/04/14 01:18:45;;;;;;;4.38;3.25;;;;;;;;;;6096564;23;20022;-69
2023/04/14 01:21:13;;;;;;;3.65;3.35;;;;;;;;;;6073386;23;20010;-67
2023/04/14 01:23:40;;;;;;;3.35;3.08;;;;;;;;;;6073023;23;20091;-66
2023/04/14 01:26:15;;;;;;;4.55;3.35;;;;;;;;;;6072850;23;20476;-68
2023/04/14 01:28:41;;;;;;;3.30;3.10;;;;;;;;;;6072409;23;20348;-68
2023/04/14 01:31:19;;;;;;;3.17;2.97;;;;;;;;;;6096489;23;20469;-67
2023/04/14 01:33:46;;;;;;;4.70;3.40;;;;;;;;;;6096119;23;20018;-68
2023/04/14 01:36:12;;;;;;;3.55;3.35;;;;;;;;;;6096637;23;20009;-68
2023/04/14 01:38:38;;;;;;;4.70;3.60;;;;;;;;;;6096117;23;20112;-68
2023/04/14 01:41:05;;;;;;;3.35;3.15;;;;;;;;;;6096802;23;20072;-68
2023/04/14 01:43:32;;;;;;;3.67;3.38;;;;;;;;;;6072265;23;20013;-68
2023/04/14 01:46:06;;;;;;;3.75;3.42;;;;;;;;;;6073950;23;20056;-68
2023/04/14 01:48:32;;;;;;;3.40;3.20;;;;;;;;;;6099085;23;20014;-68
2023/04/14 01:50:58;;;;;;;3.75;3.55;;;;;;;;;;6096960;23;20014;-68
2023/04/14 01:53:25;;;;;;;4.53;4.22;;;;;;;;;;6096439;23;20032;-68
2023/04/14 01:55:51;;;;;;;3.50;3.17;;;;;;;;;;6093182;23;20026;-68
2023/04/14 01:58:17;;;;;;;3.55;3.33;;;;;;;;;;6093541;23;20018;-67
2023/04/14 02:00:44;;;;;;;3.67;3.03;;;;;;;;;;6093199;23;20018;-68
2023/04/14 02:03:10;;;;;;;5.80;4.13;;;;;;;;;;6093204;23;20044;-67
2023/04/14 02:05:37;;;;;;;3.20;2.75;;;;;;;;;;6093113;23;20021;-68
2023/04/14 02:08:05;;;;;;;4.35;3.97;;;;;;;;;;6069357;23;20096;-68
2023/04/14 02:10:31;;;;;;;3.50;3.30;;;;;;;;;;6093254;23;20010;-68
2023/04/14 02:12:57;;;;;;;3.92;3.65;;;;;;;;;;6093867;23;20046;-69
2023/04/14 02:15:24;;;;;;;2.83;2.63;;;;;;;;;;6096907;23;20021;-69
2023/04/14 02:17:51;;;;;;;4.85;3.17;;;;;;;;;;6069596;23;20047;-69
2023/04/14 02:20:18;;;;;;;8.75;3.60;;;;;;;;;;6094465;23;20442;-69
2023/04/14 02:22:45;;;;;;;4.68;3.78;;;;;;;;;;6092671;23;20212;-69
2023/04/14 02:25:11;;;;;;;4.53;4.22;;;;;;;;;;6090562;23;20097;-67
2023/04/14 02:27:45;;;;;;;4.18;3.88;;;;;;;;;;6093966;23;20069;-67
2023/04/14 02:30:11;;;;;;;4.38;3.97;;;;;;;;;;6093129;23;20085;-69
2023/04/14 02:32:38;;;;;;;3.92;3.63;;;;;;;;;;6092730;23;20022;-69
2023/04/14 02:35:10;;;;;;;4.47;4.18;;;;;;;;;;6092958;23;20006;-68
2023/04/14 02:37:38;;;;;;;4.70;3.90;;;;;;;;;;6092838;23;20018;-68
2023/04/14 02:40:06;;;;;;;4.50;4.13;;;;;;;;;;6044958;23;20123;-68
2023/04/14 02:42:32;;;;;;;4.45;4.05;;;;;;;;;;6092640;23;20033;-68
2023/04/14 02:45:01;;;;;;;3.70;3.38;;;;;;;;;;6068828;23;20412;-68
2023/04/14 02:47:30;;;;;;;4.40;4.10;;;;;;;;;;6069169;23;20097;-68
2023/04/14 02:49:58;;;;;;;5.78;3.70;;;;;;;;;;6092820;23;20021;-68
2023/04/14 02:52:24;;;;;;;4.78;4.38;;;;;;;;;;6092891;23;20015;-69
2023/04/14 02:54:52;;;;;;;3.83;3.53;;;;;;;;;;6068960;23;20030;-68
2023/04/14 02:57:18;;;;;;;3.45;3.25;;;;;;;;;;6069106;23;20069;-67
2023/04/14 02:59:47;;;;;;;3.40;3.20;;;;;;;;;;6092109;23;20022;-68
2023/04/14 03:02:15;;;;;;;3.40;3.08;;;;;;;;;;6092626;23;20018;-68
2023/04/14 03:04:45;;;;;;;2.97;2.85;;;;;;;;;;6092429;23;20349;-68
2023/04/14 03:07:23;;;;;;;3.65;2.85;;;;;;;;;;6092326;23;20014;-68
2023/04/14 03:09:49;;;;;;;3.60;3.40;;;;;;;;;;6092172;23;20018;-69
2023/04/14 03:12:16;;;;;;;3.50;3.30;;;;;;;;;;6092499;23;20022;-69
2023/04/14 03:14:43;;;;;;;3.42;3.20;;;;;;;;;;6093717;23;20010;-69
2023/04/14 03:17:10;;;;;;;4.10;3.72;;;;;;;;;;6068614;23;20439;-69
2023/04/14 03:19:39;;;;;;;3.58;3.28;;;;;;;;;;6094274;23;20025;-69
2023/04/14 03:22:09;;;;;;;2.67;2.47;;;;;;;;;;6092094;23;20062;-68
2023/04/14 03:24:35;;;;;;;4.72;3.00;;;;;;;;;;6093724;23;20018;-67
2023/04/14 03:27:08;;;;;;;2.60;2.22;;;;;;;;;;6092515;23;20007;-68
2023/04/14 03:29:39;;;;;;;4.68;3.67;;;;;;;;;;6068205;23;20011;-67
2023/04/14 03:32:05;;;;;;;3.55;3.28;;;;;;;;;;6068782;23;20448;-68
2023/04/14 03:34:34;;;;;;;3.75;3.55;;;;;;;;;;6091280;23;20021;-70
2023/04/14 03:37:00;;;;;;;4.20;3.47;;;;;;;;;;6092470;23;20018;-71
2023/04/14 03:39:31;;;;;;;2.83;2.65;;;;;;;;;;6092345;23;20029;-71
2023/04/14 03:41:58;;;;;;;3.72;3.47;;;;;;;;;;6068439;23;20022;-70
2023/04/14 03:44:30;;;;;;;3.33;3.20;;;;;;;;;;6092001;23;20018;-71
2023/04/14 03:46:56;;;;;;;3.08;2.88;;;;;;;;;;6091625;23;20042;-70
2023/04/14 03:49:22;;;;;;;5.22;3.15;;;;;;;;;;6092251;23;20069;-71
2023/04/14 03:51:50;;;;;;;4.20;3.90;;;;;;;;;;6093180;23;20022;-71
2023/04/14 03:54:16;;;;;;;3.85;3.45;;;;;;;;;;6094807;23;20026;-71
2023/04/14 03:56:44;;;;;;;4.00;2.97;;;;;;;;;;6092451;23;20065;-71
2023/04/14 03:59:13;;;;;;;2.72;2.55;;;;;;;;;;6069046;23;20109;-71
2023/04/14 04:01:41;;;;;;;2.83;2.55;;;;;;;;;;6068924;23;20039;-72
2023/04/14 04:04:07;;;;;;;4.43;3.53;;;;;;;;;;6092300;23;20018;-72
2023/04/14 04:06:35;;;;;;;4.57;3.08;;;;;;;;;;6092351;23;20118;-70
2023/04/14 04:09:01;;;;;;;2.83;2.55;;;;;;;;;;6064118;23;20388;-70
2023/04/14 04:11:27;;;;;;;5.47;3.15;;;;;;;;;;6093484;23;20014;-70
2023/04/14 04:13:55;;;;;;;3.15;2.85;;;;;;;;;;6068333;23;20065;-72
2023/04/14 04:16:21;;;;;;;3.25;2.67;;;;;;;;;;6092560;23;20021;-71
2023/04/14 04:18:49;;;;;;;7.30;2.95;;;;;;;;;;6091789;23;20812;-72
2023/04/14 04:21:21;;;;;;;12.20;2.63;;;;;;;;;;6093080;23;20014;-74
2023/04/14 04:23:48;;;;;;;3.42;2.42;;;;;;;;;;6093587;23;20455;-72
2023/04/14 04:26:14;;;;;;;2.75;2.55;;;;;;;;;;6089874;23;20014;-70
2023/04/14 04:28:40;;;;;;;4.60;3.15;;;;;;;;;;6092826;23;20367;-71
2023/04/14 04:31:06;;;;;;;3.85;2.90;;;;;;;;;;6088997;23;20038;-71
2023/04/14 04:33:32;;;;;;;4.65;3.10;;;;;;;;;;6041803;23;20014;-70
2023/04/14 04:36:00;;;;;;;4.90;2.85;;;;;;;;;;6087917;23;20487;-71
2023/04/14 04:38:32;;;;;;;3.05;2.85;;;;;;;;;;6090226;23;20482;-69
2023/04/14 04:40:58;;;;;;;3.05;2.85;;;;;;;;;;6092650;23;20063;-69
2023/04/14 04:43:26;;;;;;;3.42;3.05;;;;;;;;;;6066675;23;20045;-69
2023/04/14 04:46:12;;;;;;;2.85;2.65;;;;;;;;;;6069187;23;20093;-70
2023/04/14 04:48:38;;;;;;;5.22;3.00;;;;;;;;;;6089187;23;20352;-70
2023/04/14 04:51:05;;;;;;;3.40;3.10;;;;;;;;;;6089415;23;20069;-69
2023/04/14 04:53:31;;;;;;;2.60;2.40;;;;;;;;;;6089753;23;20010;-69
2023/04/14 04:55:57;;;;;;;3.83;2.55;;;;;;;;;;6087763;23;20034;-69
2023/04/14 04:58:23;;;;;;;2.80;2.60;;;;;;;;;;6080579;23;20014;-69
2023/04/14 05:00:49;;;;;;;3.83;2.88;;;;;;;;;;6088839;23;20018;-68
2023/04/14 05:03:15;;;;;;;3.05;2.70;;;;;;;;;;6064895;23;20026;-69
2023/04/14 05:05:41;;;;;;;8.93;3.20;;;;;;;;;;6091819;23;20146;-70
2023/04/14 05:08:07;;;;;;;2.88;2.67;;;;;;;;;;6092659;23;20469;-69
2023/04/14 05:10:33;;;;;;;2.30;2.20;;;;;;;;;;6092313;23;20010;-69
2023/04/14 05:12:59;;;;;;;2.72;2.53;;;;;;;;;;6091130;23;20397;-70
2023/04/14 05:15:25;;;;;;;3.65;3.38;;;;;;;;;;6092241;23;20412;-70
2023/04/14 05:17:51;;;;;;;2.78;2.58;;;;;;;;;;6092215;23;20014;-70
2023/04/14 05:20:18;;;;;;;2.83;2.47;;;;;;;;;;6092312;23;20041;-70
2023/04/14 05:22:44;;;;;;;2.95;2.78;;;;;;;;;;6091667;23;20463;-70
2023/04/14 05:25:10;;;;;;;3.58;2.88;;;;;;;;;;6092820;23;20100;-69
2023/04/14 05:27:36;;;;;;;2.72;2.53;;;;;;;;;;6092468;23;20471;-70
2023/04/14 05:30:02;;;;;;;4.15;2.72;;;;;;;;;;6092147;23;20011;-71
2023/04/14 05:32:29;;;;;;;3.22;2.25;;;;;;;;;;6093976;23;20048;-69
2023/04/14 05:34:56;;;;;;;4.60;2.55;;;;;;;;;;6093613;23;20565;-69
2023/04/14 05:37:23;;;;;;;3.10;2.28;;;;;;;;;;6093519;23;20010;-69
2023/04/14 05:39:51;;;;;;;1.98;1.88;;;;;;;;;;6092284;23;20627;-69
2023/04/14 05:42:17;;;;;;;3.55;2.60;;;;;;;;;;6093726;23;20018;-69
2023/04/14 05:44:43;;;;;;;2.38;2.10;;;;;;;;;;6092148;23;20020;-70
2023/04/14 05:47:09;;;;;;;6.13;2.20;;;;;;;;;;6094238;23;20018;-69
2023/04/14 05:49:35;;;;;;;2.70;2.30;;;;;;;;;;6093288;23;20046;-70
2023/04/14 05:52:01;;;;;;;2.75;2.50;;;;;;;;;;6094980;23;20025;-70
2023/04/14 05:54:28;;;;;;;3.88;2.70;;;;;;;;;;6093941;23;20025;-71
2023/04/14 05:56:55;;;;;;;2.08;1.98;;;;;;;;;;6092699;23;20518;-71
2023/04/14 05:59:21;;;;;;;2.45;2.35;;;;;;;;;;6096459;23;20021;-70
2023/04/14 06:01:47;;;;;;;5.15;2.30;;;;;;;;;;6098590;23;20014;-70
2023/04/14 06:04:12;;;;;;;2.22;2.13;;;;;;;;;;6095954;23;20479;-70
2023/04/14 06:06:38;;;;;;;2.30;2.15;;;;;;;;;;6094577;23;20089;-70
2023/04/14 06:09:04;;;;;;;3.58;2.55;;;;;;;;;;6092883;23;20014;-70
2023/04/14 06:11:30;;;;;;;6.20;2.50;;;;;;;;;;6093949;23;20014;-70
2023/04/14 06:14:01;;;;;;;2.47;2.20;;;;;;;;;;6092223;23;20021;-70
2023/04/14 06:16:27;;;;;;;3.03;2.63;;;;;;;;;;6090116;23;20105;-70
2023/04/14 06:18:53;;;;;;;3.15;2.65;;;;;;;;;;6090900;23;20018;-71
2023/04/14 06:21:19;;;;;;;2.45;2.35;;;;;;;;;;6089691;23;20018;-70
2023/04/14 06:23:46;;;;;;;4.15;2.17;;;;;;;;;;6092320;23;20018;-71
2023/04/14 06:26:12;;;;;;;7.47;2.53;;;;;;;;;;6090436;23;20015;-70
2023/04/14 06:28:38;;;;;;;5.15;2.40;;;;;;;;;;6093181;23;20046;-70
2023/04/14 06:31:04;;;;;;;2.60;2.40;;;;;;;;;;6093187;23;20018;-71
2023/04/14 06:33:30;;;;;;;3.78;2.10;;;;;;;;;;6091971;23;20018;-70
2023/04/14 06:35:56;;;;;;;3.83;2.10;;;;;;;;;;6093320;23;20018;-71
2023/04/14 06:38:24;;;;;;;3.35;2.85;;;;;;;;;;6094293;23;20049;-71
2023/04/14 06:40:50;;;;;;;3.17;2.50;;;;;;;;;;6094442;23;20015;-70
2023/04/14 06:43:16;;;;;;;3.40;1.98;;;;;;;;;;6093101;23;20030;-70
2023/04/14 06:45:42;;;;;;;5.43;2.47;;;;;;;;;;6094453;23;20010;-70
2023/04/14 06:48:10;;;;;;;2.55;2.30;;;;;;;;;;6093573;23;20526;-70
2023/04/14 06:50:36;;;;;;;2.63;2.30;;;;;;;;;;6093061;23;20022;-70
2023/04/14 06:53:03;;;;;;;5.43;2.38;;;;;;;;;;6094558;23;20069;-70
2023/04/14 06:55:29;;;;;;;3.25;2.05;;;;;;;;;;6113496;23;20029;-70
2023/04/14 06:57:55;;;;;;;2.40;1.92;;;;;;;;;;6125454;23;20018;-71
2023/04/14 07:00:21;;;;;;;2.20;2.00;;;;;;;;;;6125898;23;20009;-70
2023/04/14 07:02:47;;;;;;;2.28;1.88;;;;;;;;;;6126253;23;20073;-70
2023/04/14 07:05:13;;;;;;;3.97;2.20;;;;;;;;;;6077089;23;20439;-70
2023/04/14 07:07:39;;;;;;;2.22;2.13;;;;;;;;;;6076793;23;20018;-71
2023/04/14 07:10:11;;;;;;;2.03;1.92;;;;;;;;;;6126072;23;20016;-70
2023/04/14 07:12:38;;;;;;;;;;;;;;;;;;6127289;23;20485;-70
2023/04/14 07:15:04;;;;;;;2.40;2.20;;;;;;;;;;6124654;23;19910;-70
2023/04/14 07:17:30;;;;;;;3.00;2.38;;;;;;;;;;6123487;23;20101;-70
2023/04/14 07:19:57;;;;;;;4.68;2.47;;;;;;;;;;6123319;23;20053;-70
2023/04/14 07:22:23;;;;;;;8.98;2.30;;;;;;;;;;6073577;23;20463;-70
2023/04/14 07:24:49;;;;;;;4.45;2.80;;;;;;;;;;6122747;23;20116;-70
2023/04/14 07:27:15;;;;;;;3.15;2.15;;;;;;;;;;6097578;23;20021;-69
2023/04/14 07:29:42;;;;;;;2.40;2.22;;;;;;;;;;6097689;23;20017;-71
2023/04/14 07:32:08;;;;;;;3.80;2.35;;;;;;;;;;6123250;23;20020;-70
2023/04/14 07:34:34;;;;;;;2.55;2.35;;;;;;;;;;6097355;23;20044;-71
2023/04/14 07:37:00;;;;;;;1.80;1.70;;;;;;;;;;6073080;23;20021;-70
2023/04/14 07:39:29;;;;;;;2.10;1.90;;;;;;;;;;6072982;23;20048;-70
2023/04/14 07:41:57;;;;;;;3.55;2.30;;;;;;;;;;6096381;23;20021;-70
2023/04/14 07:44:23;;;;;;;3.05;1.73;;;;;;;;;;6096938;23;20021;-70
2023/04/14 07:46:49;;;;;;;3.63;2.05;;;;;;;;;;6073452;23;20013;-69
2023/04/14 07:49:15;;;;;;;2.97;2.20;;;;;;;;;;6123293;23;20017;-69
2023/04/14 07:51:41;;;;;;;3.08;2.28;;;;;;;;;;6123416;23;20014;-71
2023/04/14 07:54:08;;;;;;;4.07;2.17;;;;;;;;;;6122899;23;20049;-70
2023/04/14 07:56:34;;;;;;;2.10;2.00;;;;;;;;;;6122773;23;20016;-70
2023/04/14 07:59:00;;;;;;;2.30;2.20;;;;;;;;;;6096438;23;20029;-69
2023/04/14 08:01:26;;;;;;;2.20;2.10;;;;;;;;;;6122910;23;20021;-70
2023/04/14 08:03:52;;;;;;;3.50;2.13;;;;;;;;;;6098445;23;20025;-70
2023/04/14 08:06:18;;;;;;;2.40;2.20;;;;;;;;;;6124167;23;20076;-70
2023/04/14 08:08:44;;;;;;;5.43;1.75;;;;;;;;;;6122791;23;20014;-71
2023/04/14 08:11:10;;;;;;;9.85;2.20;;;;;;;;;;6122837;23;20108;-70
2023/04/14 08:13:36;;;;;;;4.13;2.03;;;;;;;;;;6124950;23;20013;-72
2023/04/14 08:16:02;;;;;;;3.92;2.20;;;;;;;;;;6124238;23;20021;-71
2023/04/14 08:18:27;;;;;;;3.33;2.40;;;;;;;;;;6125246;23;20456;-70
2023/04/14 08:20:54;;;;;;;2.42;2.20;;;;;;;;;;6099172;23;20359;-71
2023/04/14 08:23:21;;;;;;;7.50;2.47;;;;;;;;;;6123786;23;20127;-70
2023/04/14 08:25:47;;;;;;;5.78;2.30;;;;;;;;;;6124393;23;20018;-71
2023/04/14 08:28:13;;;;;;;3.25;2.65;;;;;;;;;;6098478;23;20591;-70
2023/04/14 08:30:40;;;;;;;2.45;2.00;;;;;;;;;;6124344;23;20010;-71
2023/04/14 08:33:06;;;;;;;2.50;2.30;;;;;;;;;;6072443;23;20521;-70
2023/04/14 08:35:32;;;;;;;4.43;2.25;;;;;;;;;;6096691;23;20041;-70
2023/04/14 08:38:00;;;;;;;3.63;2.22;;;;;;;;;;6122311;23;20021;-70
2023/04/14 08:40:29;;;;;;;4.13;2.00;;;;;;;;;;6096745;23;20010;-70
2023/04/14 08:42:55;;;;;;;2.20;2.05;;;;;;;;;;6122253;23;20378;-71
2023/04/14 08:45:22;;;;;;;3.10;2.00;;;;;;;;;;6122690;23;20093;-71
2023/04/14 08:47:48;;;;;;;3.17;2.20;;;;;;;;;;6122626;23;20084;-71
2023/04/14 08:50:15;;;;;;;5.93;2.30;;;;;;;;;;6121989;23;20014;-70
2023/04/14 08:52:41;;;;;;;3.90;2.45;;;;;;;;;;6096516;23;20359;-71
2023/04/14 08:55:07;;;;;;;3.97;2.20;;;;;;;;;;6121356;23;20026;-71
2023/04/14 08:57:33;;;;;;;2.70;2.50;;;;;;;;;;6122227;23;20518;-71
2023/04/14 09:00:03;;;;;;;2.63;1.67;;;;;;;;;;6122026;23;20014;-71
2023/04/14 09:02:33;;;;;;;6.70;2.25;;;;;;;;;;6097479;23;20013;-70
2023/04/14 09:05:00;;;;;;;3.20;2.70;;;;;;;;;;6123188;23;20010;-70
2023/04/14 09:07:26;;;;;;;4.03;2.10;;;;;;;;;;6124458;23;20014;-70
2023/04/14 09:09:52;;;;;;;7.47;2.08;;;;;;;;;;6098463;23;20010;-69
2023/04/14 09:12:18;;;;;;;4.78;2.20;;;;;;;;;;6098332;23;20359;-69
2023/04/14 09:14:45;;;;;;;5.95;2.72;;;;;;;;;;6123962;23;20157;-71
2023/04/14 09:17:11;;;;;;;3.90;2.10;;;;;;;;;;6098095;23;20014;-69
2023/04/14 09:19:37;;;;;;;2.58;1.80;;;;;;;;;;6123940;23;20629;-70
2023/04/14 09:22:04;;;;;;;2.30;1.70;;;;;;;;;;6074010;23;20045;-70
2023/04/14 09:24:32;;;;;;;3.35;1.83;;;;;;;;;;6124144;23;20109;-70
2023/04/14 09:27:03;;;;;;;2.15;1.95;;;;;;;;;;6098847;23;20408;-70
2023/04/14 09:29:30;;;;;;;2.47;2.00;;;;;;;;;;6124115;23;20077;-69
2023/04/14 09:31:56;;;;;;;3.20;2.00;;;;;;;;;;6123704;23;20014;-70
2023/04/14 09:34:22;;;;;;;3.65;1.40;;;;;;;;;;6074195;23;20541;-71
2023/04/14 09:37:02;;;;;;;2.15;1.77;;;;;;;;;;6125712;23;20014;-70
2023/04/14 09:39:28;;;;;;;3.13;2.03;;;;;;;;;;6123933;23;20035;-70
2023/04/14 09:41:54;;;;;;;2.20;2.10;;;;;;;;;;6123678;23;20021;-70
2023/04/14 09:44:20;;;;;;;3.60;1.52;;;;;;;;;;6123571;23;20101;-70
2023/04/14 09:46:57;;;;;;;9.15;2.10;;;;;;;;;;6123445;23;20395;-70
2023/04/14 09:49:23;;;;;;;2.47;2.20;;;;;;;;;;6124078;23;20021;-70
2023/04/14 09:51:49;;;;;;;2.80;1.98;;;;;;;;;;6124016;23;20014;-70
2023/04/14 09:54:23;;;;;;;2.20;2.10;;;;;;;;;;6097426;23;20014;-70
2023/04/14 09:56:49;;;;;;;3.10;1.95;;;;;;;;;;6124089;23;20025;-70
2023/04/14 09:59:15;;;;;;;2.13;1.85;;;;;;;;;;6098289;23;20595;-70
2023/04/14 10:01:41;;;;;;;3.10;2.10;;;;;;;;;;6124234;23;20193;-70
2023/04/14 10:04:19;;;;;;;3.65;2.17;;;;;;;;;;6098100;23;20431;-70
2023/04/14 10:06:46;;;;;;;4.32;2.50;;;;;;;;;;6123887;23;20013;-71
2023/04/14 10:09:19;;;;;;;3.75;2.70;;;;;;;;;;6124932;23;20014;-70
2023/04/14 10:11:45;;;;;;;2.13;1.92;;;;;;;;;;6126567;23;20009;-71
2023/04/14 10:14:11;;;;;;;7.05;2.10;;;;;;;;;;6097523;23;20051;-70
2023/04/14 10:16:37;;;;;;;2.20;2.10;;;;;;;;;;6123623;23;20010;-70
2023/04/14 10:19:04;;;;;;;1.88;1.77;;;;;;;;;;6123723;23;20105;-70
2023/04/14 10:21:30;;;;;;;2.30;2.10;;;;;;;;;;6096077;23;20164;-71
2023/04/14 10:23:56;;;;;;;2.13;1.95;;;;;;;;;;6123681;23;20022;-70
2023/04/14 10:26:22;;;;;;;8.82;2.22;;;;;;;;;;6097458;23;20064;-70
2023/04/14 10:28:49;;;;;;;2.40;2.08;;;;;;;;;;6123660;23;20097;-70
2023/04/14 10:31:26;;;;;;;2.35;1.80;;;;;;;;;;6097639;23;20046;-71
2023/04/14 10:33:52;;;;;;;5.03;2.08;;;;;;;;;;6123622;23;20068;-69
2023/04/14 10:36:26;;;;;;;2.80;1.92;;;;;;;;;;6122667;23;20010;-69
2023/04/14 10:38:59;;;;;;;6.07;1.83;;;;;;;;;;6124244;23;20018;-69
2023/04/14 10:41:25;;;;;;;4.18;2.15;;;;;;;;;;6073645;23;20506;-69
2023/04/14 10:43:51;;;;;;;2.13;1.90;;;;;;;;;;6124272;23;20026;-70
2023/04/14 10:46:17;;;;;;;3.47;1.77;;;;;;;;;;6123272;23;20469;-70
2023/04/14 10:48:45;;;;;;;1.85;1.75;;;;;;;;;;6123810;23;20379;-70
2023/04/14 10:51:12;;;;;;;4.55;2.38;;;;;;;;;;6097628;23;20089;-69
2023/04/14 17:41:50;;;;;;;1.95;1.85;;;;;;;;;;6073898;23;20078;-73
2023/04/14 17:44:17;;;;;;;3.90;3.25;;;;;;;;;;6004305;23;20042;-71
2023/04/14 17:46:44;;;;;;;6.70;1.98;;;;;;;;;;6036463;23;20023;-71
2023/04/14 17:49:15;;;;;;;2.95;2.03;;;;;;;;;;5987977;23;20015;-71
2023/04/14 17:51:43;;;;;;;5.28;2.55;;;;;;;;;;6013249;23;20015;-71
2023/04/14 17:54:13;;;;;;;2.50;2.30;;;;;;;;;;5987553;23;20050;-71
2023/04/14 17:56:42;;;;;;;2.10;1.92;;;;;;;;;;6036763;23;20011;-71
2023/04/14 17:59:11;;;;;;;8.68;2.92;;;;;;;;;;6012141;23;20353;-71
2023/04/14 18:01:40;;;;;;;3.95;2.90;;;;;;;;;;5988601;23;20012;-74
2023/04/14 18:04:07;;;;;;;3.58;2.30;;;;;;;;;;6031052;23;20417;-73
2023/04/14 18:06:33;;;;;;;8.70;2.38;;;;;;;;;;6037126;23;20018;-73
2023/04/14 18:08:59;;;;;;;5.15;2.40;;;;;;;;;;6037803;23;20042;-73
2023/04/14 18:11:26;;;;;;;2.25;1.88;;;;;;;;;;6011435;23;20090;-74
2023/04/14 18:13:52;;;;;;;5.30;2.60;;;;;;;;;;6012202;23;20046;-73
2023/04/14 18:16:19;;;;;;;3.15;2.33;;;;;;;;;;6037222;23;20015;-73
2023/04/14 18:18:45;;;;;;;5.18;2.63;;;;;;;;;;6011460;23;20015;-72
2023/04/14 18:21:12;;;;;;;6.18;2.40;;;;;;;;;;5988352;23;20015;-73
2023/04/14 18:23:39;;;;;;;4.85;2.30;;;;;;;;;;5988408;23;20053;-73
2023/04/14 18:26:07;;;;;;;4.57;2.45;;;;;;;;;;6035335;23;20012;-74
2023/04/14 18:28:33;;;;;;;2.53;2.42;;;;;;;;;;6007713;23;20429;-73
2023/04/14 18:31:01;;;;;;;5.60;2.75;;;;;;;;;;6010210;23;20016;-74
2023/04/14 18:33:28;;;;;;;2.00;1.90;;;;;;;;;;6010048;23;20042;-73
2023/04/14 18:36:02;;;;;;;2.10;2.00;;;;;;;;;;6037309;23;20015;-73
2023/04/14 18:38:35;;;;;;;10.25;2.88;;;;;;;;;;6011182;23;20163;-75
2023/04/14 18:41:10;;;;;;;6.07;2.65;;;;;;;;;;6014581;23;20015;-74
2023/04/14 18:43:38;;;;;;;3.70;2.28;;;;;;;;;;6019747;23;20079;-74
2023/04/14 18:46:05;;;;;;;2.08;1.98;;;;;;;;;;6012272;23;20031;-73
2023/04/14 18:48:39;;;;;;;2.30;2.10;;;;;;;;;;6010806;23;20019;-74
2023/04/14 18:51:09;;;;;;;4.80;2.90;;;;;;;;;;6034758;23;20094;-74
2023/04/14 18:53:35;;;;;;;2.72;2.30;;;;;;;;;;6035209;23;20094;-74
2023/04/14 18:56:01;;;;;;;2.75;2.55;;;;;;;;;;6009642;23;20012;-74
2023/04/14 18:58:29;;;;;;;2.13;2.00;;;;;;;;;;6007895;23;20019;-74
2023/04/14 19:00:55;;;;;;;2.53;2.33;;;;;;;;;;5984505;23;20015;-74
2023/04/14 19:03:22;;;;;;;1.55;1.45;;;;;;;;;;6006619;23;20027;-74
2023/04/14 19:05:51;;;;;;;3.70;2.17;;;;;;;;;;6008380;23;20023;-75
2023/04/14 19:08:17;;;;;;;2.65;2.30;;;;;;;;;;5983199;23;20050;-76
2023/04/14 19:10:45;;;;;;;2.25;2.15;;;;;;;;;;6031873;23;20487;-76
2023/04/14 19:13:10;;;;;;;2.30;2.20;;;;;;;;;;6032719;23;20043;-74
2023/04/14 19:15:37;;;;;;;3.97;2.13;;;;;;;;;;5985366;23;20071;-74
2023/04/14 19:18:03;;;;;;;2.03;1.92;;;;;;;;;;6033578;23;20059;-75
2023/04/14 19:20:29;;;;;;;5.95;2.10;;;;;;;;;;6009172;23;20043;-75
2023/04/14 19:22:55;;;;;;;5.03;2.20;;;;;;;;;;6035201;23;20019;-75
2023/04/14 19:25:21;;;;;;;1.80;1.70;;;;;;;;;;5987773;23;20531;-76
2023/04/14 19:27:47;;;;;;;1.95;1.83;;;;;;;;;;6010723;23;20022;-75
2023/04/14 19:30:13;;;;;;;4.40;2.20;;;;;;;;;;6011635;23;20019;-75
2023/04/14 19:32:40;;;;;;;2.05;1.95;;;;;;;;;;5987292;23;20056;-76
2023/04/14 19:35:07;;;;;;;2.60;2.40;;;;;;;;;;6036196;23;20094;-77
2023/04/14 19:37:33;;;;;;;3.30;2.50;;;;;;;;;;6035749;23;20022;-76
2023/04/14 19:39:59;;;;;;;5.20;2.40;;;;;;;;;;6036006;23;20011;-75
2023/04/14 19:42:25;;;;;;;4.00;2.53;;;;;;;;;;6010878;23;20015;-76
2023/04/14 19:44:52;;;;;;;2.22;2.05;;;;;;;;;;6013576;23;20485;-75
2023/04/14 19:47:18;;;;;;;2.38;2.17;;;;;;;;;;6011019;23;20019;-75
2023/04/14 19:49:44;;;;;;;2.67;2.40;;;;;;;;;;6035380;23;20025;-76
2023/04/14 19:52:09;;;;;;;3.38;2.63;;;;;;;;;;6035680;23;20015;-74
2023/04/14 19:54:36;;;;;;;3.10;2.17;;;;;;;;;;5986999;23;20019;-74
2023/04/14 19:57:02;;;;;;;2.15;1.85;;;;;;;;;;6010564;23;20019;-76
2023/04/14 19:59:30;;;;;;;3.85;1.85;;;;;;;;;;6009977;23;20019;-77
2023/04/14 20:01:56;;;;;;;2.90;2.30;;;;;;;;;;6035943;23;20007;-75
2023/04/14 20:04:23;;;;;;;2.60;2.40;;;;;;;;;;5986864;23;20102;-74
2023/04/14 20:06:49;;;;;;;2.38;2.13;;;;;;;;;;6034738;23;20026;-74
2023/04/14 20:09:16;;;;;;;2.15;1.98;;;;;;;;;;6035743;23;20026;-75
2023/04/14 20:11:41;;;;;;;1.70;1.60;;;;;;;;;;6010516;23;20018;-75
2023/04/14 20:14:08;;;;;;;1.77;1.67;;;;;;;;;;6010277;23;20412;-76
2023/04/14 20:16:34;;;;;;;2.00;1.83;;;;;;;;;;6010119;23;20022;-74
2023/04/14 20:19:00;;;;;;;2.85;1.40;;;;;;;;;;6033953;23;20448;-75
2023/04/14 20:21:26;;;;;;;2.30;2.10;;;;;;;;;;6033688;23;20016;-74
2023/04/14 20:23:52;;;;;;;2.05;1.83;;;;;;;;;;6035368;23;20026;-74
2023/04/14 20:26:19;;;;;;;2.00;1.90;;;;;;;;;;6036071;23;20016;-74
2023/04/14 20:28:46;;;;;;;2.75;2.00;;;;;;;;;;6010078;23;20015;-75
2023/04/14 20:31:12;;;;;;;2.47;2.28;;;;;;;;;;6035727;23;20019;-73
2023/04/14 20:33:38;;;;;;;2.00;1.90;;;;;;;;;;6010498;23;20469;-73
2023/04/14 20:36:04;;;;;;;2.60;2.08;;;;;;;;;;6036017;23;20038;-74
2023/04/14 20:38:31;;;;;;;1.88;1.73;;;;;;;;;;6009979;23;20019;-75
2023/04/14 20:40:57;;;;;;;2.78;2.58;;;;;;;;;;6010637;23;20022;-75
2023/04/14 20:43:24;;;;;;;5.15;2.70;;;;;;;;;;6055404;23;20026;-74
2023/04/14 20:45:51;;;;;;;4.55;2.55;;;;;;;;;;6047158;23;20018;-74
2023/04/14 20:48:18;;;;;;;1.98;1.80;;;;;;;;;;6045095;23;20018;-74
2023/04/14 20:50:48;;;;;;;2.30;2.10;;;;;;;;;;6094767;23;20010;-75
2023/04/14 20:53:14;;;;;;;2.30;2.10;;;;;;;;;;6069463;23;20042;-74
2023/04/14 20:55:40;;;;;;;2.08;1.75;;;;;;;;;;6069921;23;20474;-75
2023/04/14 20:58:06;;;;;;;1.80;1.70;;;;;;;;;;6096660;23;20043;-75
2023/04/14 21:00:34;;;;;;;2.72;2.22;;;;;;;;;;6094892;23;20010;-75
2023/04/14 21:03:02;;;;;;;2.72;2.53;;;;;;;;;;6068386;23;20015;-75
2023/04/14 21:05:28;;;;;;;1.90;1.80;;;;;;;;;;6091815;23;20025;-75
2023/04/14 21:07:54;;;;;;;4.97;1.95;;;;;;;;;;6092033;23;20014;-75
2023/04/14 21:10:20;;;;;;;5.65;2.08;;;;;;;;;;6066136;23;20018;-75
2023/04/14 21:12:46;;;;;;;2.17;2.00;;;;;;;;;;6091043;23;20046;-73
2023/04/14 21:15:12;;;;;;;2.80;1.88;;;;;;;;;;6065861;23;20014;-73
2023/04/14 21:17:38;;;;;;;3.17;2.47;;;;;;;;;;6042000;23;20107;-73
2023/04/14 21:20:05;;;;;;;2.42;2.10;;;;;;;;;;6042362;23;20027;-73
2023/04/14 21:22:31;;;;;;;2.80;2.60;;;;;;;;;;6018333;23;20014;-73
2023/04/14 21:24:57;;;;;;;2.97;2.33;;;;;;;;;;6091716;23;20029;-72
2023/04/14 21:27:23;;;;;;;3.65;2.47;;;;;;;;;;6067851;23;20017;-73
2023/04/14 21:29:49;;;;;;;2.55;2.30;;;;;;;;;;6092662;23;20014;-75